createdAt,value
2022-08-04T00:02:55.742Z,2.10
2022-08-04T00:05:53.250Z,1.60
2022-08-04T00:08:53.038Z,1.60
2022-08-04T00:11:53.284Z,1.90
2022-08-04T00:14:50.751Z,1.70
2022-08-04T00:17:48.254Z,1.80
2022-08-04T00:20:45.873Z,2.00
2022-08-04T00:24:10.371Z,1.90
2022-08-04T00:27:00.816Z,2.00
2022-08-04T00:29:58.291Z,2.30
2022-08-04T00:32:55.762Z,2.30
2022-08-04T00:35:53.327Z,1.90
2022-08-04T00:38:50.856Z,2.20
2022-08-04T00:41:56.098Z,1.90
2022-08-04T00:44:54.685Z,1.60
2022-08-04T00:47:52.191Z,1.80
2022-08-04T00:50:49.697Z,1.90
2022-08-04T00:53:49.919Z,1.90
2022-08-04T00:56:47.833Z,1.90
2022-08-04T00:59:45.354Z,1.60
2022-08-04T01:02:43.490Z,1.80
2022-08-04T01:05:40.985Z,2.20
2022-08-04T01:08:38.479Z,1.80
2022-08-04T01:11:56.904Z,1.60
2022-08-04T01:14:53.373Z,2.00
2022-08-04T01:17:50.840Z,1.90
2022-08-04T01:20:48.319Z,1.80
2022-08-04T01:23:45.843Z,1.80
2022-08-04T01:26:53.765Z,1.80
2022-08-04T01:29:55.837Z,1.80
2022-08-04T01:32:53.316Z,1.60
2022-08-04T01:35:50.800Z,1.90
2022-08-04T01:38:48.269Z,1.80
2022-08-04T01:41:57.958Z,1.80
2022-08-04T01:44:56.138Z,1.80
2022-08-04T01:47:53.613Z,2.00
2022-08-04T01:50:52.986Z,1.90
2022-08-04T01:53:50.719Z,1.80
2022-08-04T01:56:48.202Z,1.90
2022-08-04T01:59:45.715Z,1.70
2022-08-04T02:02:43.291Z,2.00
2022-08-04T02:06:03.269Z,1.70
2022-08-04T02:08:58.305Z,2.10
2022-08-04T02:11:55.789Z,1.90
2022-08-04T02:14:53.247Z,1.80
2022-08-04T02:17:51.068Z,1.70
2022-08-04T02:20:48.548Z,2.00
2022-08-04T02:23:46.039Z,1.70
2022-08-04T02:26:43.535Z,2.10
2022-08-04T02:29:41.011Z,1.80
2022-08-04T02:32:39.997Z,2.00
2022-08-04T02:35:37.794Z,1.90
2022-08-04T02:38:35.278Z,1.60
2022-08-04T02:41:32.856Z,1.80
2022-08-04T02:44:30.324Z,2.00
2022-08-04T02:48:30.597Z,2.00
2022-08-04T02:50:45.309Z,1.90
2022-08-04T02:53:42.786Z,1.90
2022-08-04T02:56:40.261Z,1.90
2022-08-04T02:59:37.707Z,1.90
2022-08-04T03:02:35.219Z,2.10
2022-08-04T03:06:00.471Z,2.10
2022-08-04T03:08:50.225Z,2.00
2022-08-04T03:11:47.770Z,1.80
2022-08-04T03:14:46.441Z,1.70
2022-08-04T03:17:52.712Z,1.80
2022-08-04T03:20:51.016Z,2.00
2022-08-04T03:23:48.515Z,2.00
2022-08-04T03:26:46.019Z,1.80
2022-08-04T03:29:44.396Z,1.90
2022-08-04T03:32:41.893Z,2.10
2022-08-04T03:35:39.419Z,1.90
2022-08-04T03:38:36.952Z,2.00
2022-08-04T03:41:56.095Z,2.10
2022-08-04T03:44:51.947Z,2.10
2022-08-04T03:47:49.473Z,1.90
2022-08-04T03:50:46.928Z,2.00
2022-08-04T03:53:44.449Z,2.10
2022-08-04T03:56:42.018Z,2.10
2022-08-04T03:59:39.510Z,2.10
2022-08-04T04:02:45.450Z,2.10
2022-08-04T04:06:00.470Z,2.10
2022-08-04T04:09:00.005Z,2.30
2022-08-04T04:11:59.329Z,1.90
2022-08-04T04:14:56.840Z,2.10
2022-08-04T04:17:54.308Z,1.70
2022-08-04T04:20:51.790Z,2.30
2022-08-04T04:23:49.279Z,2.10
2022-08-04T04:26:46.779Z,2.10
2022-08-04T04:29:47.326Z,2.20
2022-08-04T04:32:45.484Z,2.40
2022-08-04T04:35:42.980Z,2.30
2022-08-04T04:38:40.434Z,2.40
2022-08-04T04:41:38.297Z,2.30
2022-08-04T04:44:35.887Z,2.50
2022-08-04T04:48:07.190Z,2.40
2022-08-04T04:50:51.078Z,2.30
2022-08-04T04:53:48.591Z,2.20
2022-08-04T04:56:47.252Z,2.10
2022-08-04T04:59:44.731Z,2.40
2022-08-04T05:02:42.212Z,2.50
2022-08-04T05:05:39.732Z,2.50
2022-08-04T05:08:44.333Z,2.20
2022-08-04T05:11:43.231Z,2.50
2022-08-04T05:14:41.920Z,2.30
2022-08-04T05:17:39.709Z,2.70
2022-08-04T05:20:37.214Z,2.70
2022-08-04T05:23:34.693Z,2.10
2022-08-04T05:26:32.166Z,2.30
2022-08-04T05:29:31.943Z,2.20
2022-08-04T05:32:29.603Z,2.70
2022-08-04T05:35:50.511Z,2.70
2022-08-04T05:38:45.099Z,2.60
2022-08-04T05:41:45.140Z,2.80
2022-08-04T05:44:47.595Z,2.70
2022-08-04T05:47:48.090Z,3.00
2022-08-04T05:50:45.584Z,2.80
2022-08-04T05:53:44.479Z,3.00
2022-08-04T05:56:42.057Z,3.00
2022-08-04T05:59:39.567Z,2.70
2022-08-04T06:02:37.074Z,2.80
2022-08-04T06:05:34.569Z,2.70
2022-08-04T06:08:32.057Z,3.00
2022-08-04T06:11:29.890Z,2.90
2022-08-04T06:14:27.435Z,3.50
2022-08-04T06:19:58.714Z,3.10
2022-08-04T06:20:49.951Z,2.80
2022-08-04T06:23:53.658Z,2.40
2022-08-04T06:26:57.143Z,2.80
2022-08-04T06:29:54.789Z,2.40
2022-08-04T06:33:03.351Z,2.80
2022-08-04T06:36:02.460Z,3.30
2022-08-04T06:39:00.066Z,3.10
2022-08-04T06:42:21.747Z,2.80
2022-08-04T06:45:15.093Z,2.70
2022-08-04T06:48:12.593Z,2.10
2022-08-04T06:51:31.860Z,2.50
2022-08-04T06:54:27.631Z,2.30
2022-08-04T06:57:25.109Z,2.60
2022-08-04T07:00:24.217Z,2.70
2022-08-04T07:03:23.443Z,2.80
2022-08-04T07:06:21.248Z,2.30
2022-08-04T07:09:18.767Z,2.60
2022-08-04T07:12:16.256Z,2.40
2022-08-04T07:15:14.567Z,2.20
2022-08-04T07:18:12.040Z,2.50
2022-08-04T07:21:09.541Z,2.20
2022-08-04T07:24:07.038Z,2.30
2022-08-04T07:27:04.529Z,2.10
2022-08-04T07:30:02.951Z,2.40
2022-08-04T07:33:02.221Z,2.20
2022-08-04T07:36:09.787Z,2.60
2022-08-04T07:39:08.448Z,3.10
2022-08-04T07:42:19.469Z,2.40
2022-08-04T07:45:16.989Z,2.20
2022-08-04T07:48:18.951Z,2.40
2022-08-04T07:51:16.561Z,2.00
2022-08-04T07:54:14.176Z,2.20
2022-08-04T07:57:19.581Z,2.10
2022-08-04T08:00:29.684Z,2.30
2022-08-04T08:03:27.212Z,2.20
2022-08-04T08:06:32.165Z,2.60
2022-08-04T08:09:32.348Z,2.20
2022-08-04T08:12:37.748Z,2.20
2022-08-04T08:15:47.677Z,2.10
2022-08-04T08:18:49.853Z,2.30
2022-08-04T08:21:59.076Z,2.50
2022-08-04T08:24:57.749Z,2.20
2022-08-04T08:27:56.312Z,2.10
2022-08-04T08:30:55.258Z,2.10
2022-08-04T08:33:57.089Z,2.00
2022-08-04T08:36:54.576Z,1.90
2022-08-04T08:39:52.081Z,1.70
2022-08-04T08:42:49.577Z,2.10
2022-08-04T08:45:47.097Z,2.30
2022-08-04T08:48:44.577Z,1.90
2022-08-04T08:51:43.704Z,1.80
2022-08-04T08:54:45.243Z,1.80
2022-08-04T08:57:43.976Z,1.90
2022-08-04T09:00:57.255Z,1.80
2022-08-04T09:03:54.757Z,1.70
2022-08-04T09:06:52.347Z,1.90
2022-08-04T09:09:49.829Z,1.90
2022-08-04T09:12:47.589Z,1.70
2022-08-04T09:15:45.129Z,1.80
2022-08-04T09:18:42.628Z,1.90
2022-08-04T09:21:40.138Z,2.20
2022-08-04T09:24:37.641Z,1.50
2022-08-04T09:27:35.182Z,1.90
2022-08-04T09:30:32.660Z,1.60
2022-08-04T09:33:45.582Z,1.70
2022-08-04T09:36:43.649Z,1.70
2022-08-04T09:39:41.222Z,1.70
2022-08-04T09:42:42.043Z,1.40
2022-08-04T09:45:44.252Z,1.60
2022-08-04T09:48:42.011Z,1.60
2022-08-04T09:51:59.045Z,1.70
2022-08-04T09:54:56.923Z,1.30
2022-08-04T09:57:54.413Z,1.40
2022-08-04T10:00:51.942Z,1.60
2022-08-04T10:03:49.495Z,1.40
2022-08-04T10:06:46.986Z,1.50
2022-08-04T10:09:44.464Z,1.60
2022-08-04T10:12:41.963Z,1.60
2022-08-04T10:15:39.458Z,1.30
2022-08-04T10:18:36.957Z,1.20
2022-08-04T10:21:34.434Z,1.50
2022-08-04T10:24:32.179Z,1.30
2022-08-04T10:27:29.666Z,1.30
2022-08-04T10:30:28.678Z,1.50
2022-08-04T10:33:26.145Z,1.60
2022-08-04T10:36:24.105Z,1.40
2022-08-04T10:39:21.593Z,1.20
2022-08-04T10:42:39.036Z,1.30
2022-08-04T10:45:36.546Z,1.10
2022-08-04T10:48:34.825Z,1.20
2022-08-04T10:51:57.637Z,1.30
2022-08-04T10:54:50.203Z,1.60
2022-08-04T10:57:47.704Z,1.30
2022-08-04T11:00:45.281Z,7.80
2022-08-04T11:03:43.088Z,5.10
2022-08-04T11:06:40.634Z,1.70
2022-08-04T11:09:38.378Z,1.40
2022-08-04T11:12:35.840Z,1.40
2022-08-04T11:15:34.580Z,1.30
2022-08-04T11:18:32.269Z,1.20
2022-08-04T11:21:29.783Z,1.30
2022-08-04T11:24:27.292Z,1.30
2022-08-04T11:27:25.343Z,1.20
2022-08-04T11:30:22.885Z,1.40
2022-08-04T11:33:20.376Z,1.30
2022-08-04T11:36:17.867Z,3.10
2022-08-04T11:39:15.373Z,1.30
2022-08-04T11:42:14.379Z,1.40
2022-08-04T11:45:11.852Z,1.20
2022-08-04T11:48:10.431Z,1.30
2022-08-04T11:51:09.525Z,1.30
2022-08-04T11:54:07.484Z,1.50
2022-08-04T11:57:05.090Z,1.30
2022-08-04T12:00:07.173Z,1.30
2022-08-04T12:03:05.356Z,1.30
2022-08-04T12:06:03.482Z,1.30
2022-08-04T12:09:00.977Z,1.30
2022-08-04T12:11:58.448Z,1.30
2022-08-04T12:14:55.934Z,1.30
2022-08-04T12:17:53.949Z,1.30
2022-08-04T12:20:51.540Z,1.60
2022-08-04T12:23:49.077Z,1.10
2022-08-04T12:26:56.534Z,1.30
2022-08-04T12:30:59.775Z,1.20
2022-08-04T12:33:11.869Z,1.40
2022-08-04T12:36:19.178Z,1.30
2022-08-04T12:39:18.935Z,1.20
2022-08-04T12:42:21.184Z,1.30
2022-08-04T12:45:19.148Z,1.30
2022-08-04T12:48:20.748Z,1.20
2022-08-04T12:51:31.211Z,1.30
2022-08-04T12:54:37.431Z,1.50
2022-08-04T12:57:35.428Z,1.20
2022-08-04T13:00:36.704Z,1.30
2022-08-04T13:03:37.985Z,1.60
2022-08-04T13:06:35.473Z,1.50
2022-08-04T13:09:34.423Z,1.20
2022-08-04T13:12:33.130Z,1.20
2022-08-04T13:15:47.705Z,1.10
2022-08-04T13:18:52.665Z,1.60
2022-08-04T13:22:03.350Z,1.40
2022-08-04T13:26:41.332Z,1.20
2022-08-04T13:28:19.119Z,1.40
2022-08-04T13:31:16.724Z,1.50
2022-08-04T13:34:18.755Z,1.40
2022-08-04T13:37:21.012Z,1.40
2022-08-04T13:40:19.007Z,1.50
2022-08-04T13:44:16.675Z,1.40
2022-08-04T13:46:33.945Z,1.20
2022-08-04T13:49:48.418Z,1.60
2022-08-04T13:52:48.884Z,1.40
2022-08-04T13:55:46.944Z,1.30
2022-08-04T13:58:44.468Z,1.20
2022-08-04T14:01:41.944Z,1.40
2022-08-04T14:04:45.217Z,1.30
2022-08-04T14:07:42.714Z,1.30
2022-08-04T14:10:40.372Z,1.40
2022-08-04T14:13:41.225Z,1.40
2022-08-04T14:16:40.079Z,1.40
2022-08-04T14:19:37.611Z,1.60
2022-08-04T14:22:35.101Z,1.60
2022-08-04T14:25:35.739Z,1.30
2022-08-04T14:29:25.256Z,1.30
2022-08-04T14:31:55.833Z,1.60
2022-08-04T14:34:56.988Z,1.20
2022-08-04T14:37:54.486Z,1.50
2022-08-04T14:40:52.017Z,1.50
2022-08-04T14:43:49.486Z,1.20
2022-08-04T14:46:46.942Z,1.30
2022-08-04T14:49:44.433Z,1.50
2022-08-04T14:52:42.760Z,1.30
2022-08-04T14:55:41.407Z,1.50
2022-08-04T14:58:39.797Z,1.70
2022-08-04T15:01:37.530Z,1.50
2022-08-04T15:04:35.088Z,1.20
2022-08-04T15:07:32.574Z,1.20
2022-08-04T15:10:30.073Z,1.50
2022-08-04T15:13:27.557Z,1.20
2022-08-04T15:16:25.049Z,1.50
2022-08-04T15:19:22.548Z,1.40
2022-08-04T15:22:21.101Z,1.60
2022-08-04T15:25:18.590Z,1.30
2022-08-04T15:28:17.540Z,1.50
2022-08-04T15:32:04.255Z,1.40
2022-08-04T15:34:32.469Z,1.60
2022-08-04T15:37:29.952Z,1.40
2022-08-04T15:40:33.569Z,1.60
2022-08-04T15:43:32.085Z,1.20
2022-08-04T15:46:43.312Z,1.60
2022-08-04T15:49:42.101Z,1.40
2022-08-04T15:52:39.584Z,1.40
2022-08-04T15:55:54.726Z,1.40
2022-08-04T15:58:52.621Z,1.60
2022-08-04T16:02:11.288Z,1.40
2022-08-04T16:05:07.971Z,1.50
2022-08-04T16:08:16.232Z,1.40
2022-08-04T16:11:13.724Z,1.50
2022-08-04T16:14:11.204Z,1.50
2022-08-04T16:17:08.704Z,1.60
2022-08-04T16:20:06.556Z,1.80
2022-08-04T16:23:04.464Z,1.50
2022-08-04T16:26:02.244Z,1.10
2022-08-04T16:28:59.714Z,1.50
2022-08-04T16:31:57.186Z,1.20
2022-08-04T16:34:56.422Z,1.60
2022-08-04T16:37:54.330Z,1.70
2022-08-04T16:40:51.860Z,1.40
2022-08-04T16:43:49.622Z,1.60
2022-08-04T16:47:08.607Z,1.30
2022-08-04T16:50:04.622Z,1.30
2022-08-04T16:53:02.263Z,1.40
2022-08-04T16:55:59.756Z,1.60
2022-08-04T16:58:57.227Z,1.40
2022-08-04T17:01:54.803Z,1.60
2022-08-04T17:05:00.925Z,1.30
2022-08-04T17:08:28.738Z,1.50
2022-08-04T17:11:22.400Z,1.60
2022-08-04T17:14:19.927Z,1.30
2022-08-04T17:17:17.453Z,1.60
2022-08-04T17:20:14.943Z,1.30
2022-08-04T17:23:12.449Z,1.40
2022-08-04T17:26:09.952Z,1.60
2022-08-04T17:29:09.736Z,1.80
2022-08-04T17:32:07.226Z,1.40
2022-08-04T17:35:04.906Z,1.70
2022-08-04T17:38:02.400Z,1.70
2022-08-04T17:41:00.943Z,1.50
2022-08-04T17:44:18.436Z,2.00
2022-08-04T17:47:15.916Z,1.80
2022-08-04T17:50:13.531Z,1.50
2022-08-04T17:56:18.894Z,1.60
2022-08-04T17:59:57.072Z,1.80
2022-08-04T18:02:35.376Z,1.70
2022-08-04T18:06:01.846Z,1.90
2022-08-04T18:08:54.845Z,1.60
2022-08-04T18:11:55.813Z,1.40
2022-08-04T18:14:53.343Z,1.60
2022-08-04T18:18:20.505Z,1.70
2022-08-04T18:21:08.323Z,1.50
2022-08-04T18:24:05.793Z,1.70
2022-08-04T18:27:09.005Z,1.80
2022-08-04T18:30:15.278Z,1.60
2022-08-04T18:33:39.722Z,1.80
2022-08-04T18:36:39.451Z,1.70
2022-08-04T18:40:25.256Z,2.00
2022-08-04T18:43:14.421Z,2.40
2022-08-04T18:46:15.124Z,2.40
2022-08-04T18:50:32.626Z,2.60
2022-08-04T18:52:31.994Z,2.40
2022-08-04T18:55:56.226Z,2.80
2022-08-04T18:58:54.153Z,2.40
2022-08-04T19:02:12.719Z,2.60
2022-08-04T19:05:17.365Z,2.80
2022-08-04T19:08:33.039Z,2.00
2022-08-04T19:11:54.468Z,2.40
2022-08-04T19:15:07.952Z,2.70
2022-08-04T19:18:12.474Z,2.60
2022-08-04T19:22:00.768Z,2.50
2022-08-04T19:24:45.719Z,2.20
2022-08-04T19:27:47.660Z,2.40
2022-08-04T19:30:55.060Z,2.20
2022-08-04T19:33:58.616Z,2.60
2022-08-04T19:37:05.549Z,2.10
2022-08-04T19:40:09.517Z,2.20
2022-08-04T19:43:15.287Z,2.20
2022-08-04T19:46:17.653Z,2.30
2022-08-04T19:50:03.027Z,2.40
2022-08-04T19:52:38.861Z,2.10
2022-08-04T19:55:38.346Z,2.40
2022-08-04T19:58:36.757Z,2.20
2022-08-04T20:01:42.203Z,2.10
2022-08-04T20:04:44.560Z,1.90
2022-08-04T20:07:46.550Z,2.10
2022-08-04T20:10:46.986Z,2.30
2022-08-04T20:13:54.155Z,2.00
2022-08-04T20:19:51.825Z,1.80
2022-08-04T20:22:52.572Z,2.50
2022-08-04T20:25:51.387Z,2.70
2022-08-04T20:28:51.973Z,2.20
2022-08-04T20:31:50.450Z,2.10
2022-08-04T20:34:48.867Z,2.10
2022-08-04T20:37:54.974Z,1.70
2022-08-04T20:40:59.243Z,2.20
2022-08-04T20:43:58.957Z,2.30
2022-08-04T20:46:56.636Z,2.40
2022-08-04T20:49:54.745Z,2.00
2022-08-04T20:52:52.281Z,2.10
2022-08-04T20:55:55.639Z,2.10
2022-08-04T20:58:53.715Z,2.50
2022-08-04T21:01:53.694Z,2.00
2022-08-04T21:04:51.509Z,2.20
2022-08-04T21:07:49.157Z,2.30
2022-08-04T21:10:47.421Z,2.10
2022-08-04T21:13:52.137Z,2.00
2022-08-04T21:16:54.953Z,2.50
2022-08-04T21:19:53.209Z,2.20
2022-08-04T21:22:51.168Z,2.50
2022-08-04T21:25:51.074Z,2.70
2022-08-04T21:28:48.559Z,2.30
2022-08-04T21:31:50.285Z,2.20
2022-08-04T21:34:54.012Z,2.00
2022-08-04T21:37:58.116Z,2.50
2022-08-04T21:40:58.934Z,2.10
2022-08-04T21:43:59.630Z,2.40
2022-08-04T21:46:57.130Z,2.20
2022-08-04T21:49:56.106Z,2.40
2022-08-04T21:52:54.850Z,1.80
2022-08-04T21:56:04.335Z,1.90
2022-08-04T21:59:11.521Z,2.10
2022-08-04T22:02:12.168Z,2.40
2022-08-04T22:05:09.707Z,2.30
2022-08-04T22:08:19.892Z,2.20
2022-08-04T22:11:20.978Z,2.10
2022-08-04T22:14:29.342Z,2.10
2022-08-04T22:17:35.736Z,2.00
2022-08-04T22:20:33.848Z,2.10
2022-08-04T22:23:44.928Z,1.90
2022-08-04T22:26:43.426Z,3.00
2022-08-04T22:29:44.899Z,3.00
2022-08-04T22:32:42.610Z,3.50
2022-08-04T22:35:48.714Z,3.10
2022-08-04T22:38:53.572Z,2.90
2022-08-04T22:42:04.009Z,3.30
2022-08-04T22:45:02.132Z,3.00
2022-08-04T22:47:59.638Z,3.10
2022-08-04T22:50:58.288Z,2.90
2022-08-04T22:53:56.369Z,2.30
2022-08-04T22:56:57.734Z,2.40
2022-08-04T22:59:56.284Z,3.10
2022-08-04T23:02:53.772Z,2.40
2022-08-04T23:05:51.220Z,3.00
2022-08-04T23:08:48.700Z,2.90
2022-08-04T23:11:50.530Z,2.60
2022-08-04T23:14:55.816Z,2.40
2022-08-04T23:17:53.291Z,2.50
2022-08-04T23:20:52.869Z,2.70
2022-08-04T23:24:00.780Z,3.00
2022-08-04T23:27:00.487Z,2.70
2022-08-04T23:29:57.986Z,2.90
2022-08-04T23:32:55.464Z,2.80
2022-08-04T23:35:54.694Z,3.10
2022-08-04T23:38:55.717Z,2.70
2022-08-04T23:41:57.754Z,3.10
2022-08-04T23:44:55.821Z,2.80
2022-08-04T23:48:18.172Z,2.60
2022-08-04T23:51:14.241Z,3.30
2022-08-04T23:54:13.103Z,2.90
2022-08-04T23:57:27.001Z,3.30
